sensor_id;sensor_type;location;lat;lon;timestamp;pressure;altitude;pressure_sealevel;temperature;humidity
24788;BME280;12883;52.662;5.196;2023-02-15T00:01:32;102988.81;;;3.24;100.00
24788;BME280;12883;52.662;5.196;2023-02-15T00:03:58;102943.47;;;2.96;100.00
24788;BME280;12883;52.662;5.196;2023-02-15T00:06:24;102987.00;;;3.25;100.00
24788;BME280;12883;52.662;5.196;2023-02-15T00:08:49;102987.56;;;3.30;100.00
24788;BME280;12883;52.662;5.196;2023-02-15T00:11:16;102978.75;;;3.31;100.00
24788;BME280;12883;52.662;5.196;2023-02-15T00:14:04;102974.13;;;3.22;100.00
24788;BME280;12883;52.662;5.196;2023-02-15T00:16:30;102975.78;;;3.23;100.00
24788;BME280;12883;52.662;5.196;2023-02-15T00:18:55;102971.28;;;3.25;100.00
24788;BME280;12883;52.662;5.196;2023-02-15T00:21:20;102980.97;;;3.37;100.00
24788;BME280;12883;52.662;5.196;2023-02-15T00:23:46;102970.75;;;3.20;100.00
24788;BME280;12883;52.662;5.196;2023-02-15T00:26:12;102974.06;;;3.09;100.00
24788;BME280;12883;52.662;5.196;2023-02-15T00:28:37;102946.13;;;2.82;100.00
24788;BME280;12883;52.662;5.196;2023-02-15T00:31:10;102960.34;;;2.92;100.00
24788;BME280;12883;52.662;5.196;2023-02-15T00:33:37;102974.06;;;3.09;100.00
24788;BME280;12883;52.662;5.196;2023-02-15T00:36:04;102974.88;;;3.10;100.00
24788;BME280;12883;52.662;5.196;2023-02-15T00:38:31;102969.47;;;3.13;100.00
24788;BME280;12883;52.662;5.196;2023-02-15T00:40:58;102965.59;;;2.92;100.00
24788;BME280;12883;52.662;5.196;2023-02-15T00:43:25;102951.84;;;2.88;100.00
24788;BME280;12883;52.662;5.196;2023-02-15T00:45:50;102963.44;;;2.84;100.00
24788;BME280;12883;52.662;5.196;2023-02-15T00:48:16;102925.41;;;2.65;100.00
24788;BME280;12883;52.662;5.196;2023-02-15T00:50:44;102953.59;;;2.88;100.00
24788;BME280;12883;52.662;5.196;2023-02-15T00:53:10;102936.22;;;2.73;100.00
24788;BME280;12883;52.662;5.196;2023-02-15T00:55:36;102936.63;;;2.93;100.00
24788;BME280;12883;52.662;5.196;2023-02-15T00:58:02;102939.94;;;2.83;100.00
24788;BME280;12883;52.662;5.196;2023-02-15T01:00:27;102957.72;;;2.92;100.00
24788;BME280;12883;52.662;5.196;2023-02-15T01:02:52;102945.38;;;2.80;100.00
24788;BME280;12883;52.662;5.196;2023-02-15T01:05:18;102927.25;;;2.77;100.00
24788;BME280;12883;52.662;5.196;2023-02-15T01:07:43;102931.66;;;3.03;100.00
24788;BME280;12883;52.662;5.196;2023-02-15T01:10:08;102927.44;;;3.00;100.00
24788;BME280;12883;52.662;5.196;2023-02-15T01:12:34;102921.66;;;3.22;100.00
24788;BME280;12883;52.662;5.196;2023-02-15T01:14:59;102925.00;;;3.24;100.00
24788;BME280;12883;52.662;5.196;2023-02-15T01:17:25;102933.03;;;3.35;100.00
24788;BME280;12883;52.662;5.196;2023-02-15T01:19:50;102930.00;;;3.41;100.00
24788;BME280;12883;52.662;5.196;2023-02-15T01:22:17;102926.75;;;3.50;100.00
24788;BME280;12883;52.662;5.196;2023-02-15T01:24:42;102942.63;;;3.22;100.00
24788;BME280;12883;52.662;5.196;2023-02-15T01:27:08;102929.78;;;3.05;100.00
24788;BME280;12883;52.662;5.196;2023-02-15T01:29:33;102931.84;;;3.00;100.00
24788;BME280;12883;52.662;5.196;2023-02-15T01:31:58;102920.09;;;2.93;100.00
24788;BME280;12883;52.662;5.196;2023-02-15T01:34:24;102910.63;;;2.90;100.00
24788;BME280;12883;52.662;5.196;2023-02-15T01:36:49;102914.03;;;2.78;100.00
24788;BME280;12883;52.662;5.196;2023-02-15T01:39:14;102862.03;;;2.58;100.00
24788;BME280;12883;52.662;5.196;2023-02-15T01:41:40;102910.38;;;2.81;100.00
24788;BME280;12883;52.662;5.196;2023-02-15T01:47:10;102911.88;;;2.85;100.00
24788;BME280;12883;52.662;5.196;2023-02-15T01:49:38;102909.56;;;2.80;100.00
24788;BME280;12883;52.662;5.196;2023-02-15T01:52:07;102891.13;;;2.68;100.00
24788;BME280;12883;52.662;5.196;2023-02-15T01:54:35;102889.00;;;2.60;100.00
24788;BME280;12883;52.662;5.196;2023-02-15T01:57:05;102882.16;;;2.72;100.00
24788;BME280;12883;52.662;5.196;2023-02-15T01:59:34;102887.19;;;2.75;100.00
24788;BME280;12883;52.662;5.196;2023-02-15T02:02:02;102840.78;;;2.36;100.00
24788;BME280;12883;52.662;5.196;2023-02-15T02:04:38;102878.56;;;2.73;100.00
24788;BME280;12883;52.662;5.196;2023-02-15T02:07:07;102877.50;;;2.63;100.00
24788;BME280;12883;52.662;5.196;2023-02-15T02:09:34;102873.38;;;2.59;100.00
24788;BME280;12883;52.662;5.196;2023-02-15T02:12:01;102860.38;;;2.57;100.00
24788;BME280;12883;52.662;5.196;2023-02-15T02:14:26;102848.53;;;2.38;100.00
24788;BME280;12883;52.662;5.196;2023-02-15T02:17:17;102874.88;;;2.63;100.00
24788;BME280;12883;52.662;5.196;2023-02-15T02:28:26;102875.31;;;3.35;100.00
24788;BME280;12883;52.662;5.196;2023-02-15T02:36:34;102866.72;;;2.94;100.00
24788;BME280;12883;52.662;5.196;2023-02-15T02:45:00;102850.38;;;3.03;100.00
24788;BME280;12883;52.662;5.196;2023-02-15T02:48:07;102854.34;;;2.96;100.00
24788;BME280;12883;52.662;5.196;2023-02-15T02:50:34;102841.28;;;2.82;100.00
24788;BME280;12883;52.662;5.196;2023-02-15T02:53:00;102848.03;;;2.86;100.00
24788;BME280;12883;52.662;5.196;2023-02-15T02:55:32;102833.47;;;2.94;100.00
24788;BME280;12883;52.662;5.196;2023-02-15T03:00:35;102828.25;;;3.07;100.00
24788;BME280;12883;52.662;5.196;2023-02-15T03:03:06;102812.94;;;3.01;100.00
24788;BME280;12883;52.662;5.196;2023-02-15T03:05:37;102822.41;;;3.16;100.00
24788;BME280;12883;52.662;5.196;2023-02-15T03:08:04;102809.81;;;3.08;100.00
24788;BME280;12883;52.662;5.196;2023-02-15T03:10:32;102827.84;;;3.13;100.00
24788;BME280;12883;52.662;5.196;2023-02-15T03:12:59;102813.59;;;3.17;100.00
24788;BME280;12883;52.662;5.196;2023-02-15T03:15:30;102816.34;;;3.15;100.00
24788;BME280;12883;52.662;5.196;2023-02-15T03:18:22;102799.66;;;3.16;100.00
24788;BME280;12883;52.662;5.196;2023-02-15T03:20:49;102793.00;;;3.11;100.00
24788;BME280;12883;52.662;5.196;2023-02-15T03:23:20;102794.81;;;3.23;100.00
24788;BME280;12883;52.662;5.196;2023-02-15T03:25:50;102786.53;;;3.16;100.00
24788;BME280;12883;52.662;5.196;2023-02-15T03:28:23;102782.88;;;3.19;100.00
24788;BME280;12883;52.662;5.196;2023-02-15T03:30:53;102786.13;;;3.35;100.00
24788;BME280;12883;52.662;5.196;2023-02-15T03:33:21;102782.13;;;3.17;100.00
24788;BME280;12883;52.662;5.196;2023-02-15T03:36:05;102795.34;;;3.15;100.00
24788;BME280;12883;52.662;5.196;2023-02-15T03:38:44;102802.28;;;3.16;100.00
24788;BME280;12883;52.662;5.196;2023-02-15T03:41:16;102794.41;;;3.16;100.00
24788;BME280;12883;52.662;5.196;2023-02-15T03:48:55;102775.19;;;3.16;100.00
24788;BME280;12883;52.662;5.196;2023-02-15T03:51:27;102790.28;;;3.25;100.00
24788;BME280;12883;52.662;5.196;2023-02-15T03:54:08;102783.59;;;3.21;100.00
24788;BME280;12883;52.662;5.196;2023-02-15T03:56:37;102782.97;;;3.17;100.00
24788;BME280;12883;52.662;5.196;2023-02-15T03:59:04;102788.19;;;3.05;100.00
24788;BME280;12883;52.662;5.196;2023-02-15T04:02:17;102772.66;;;3.14;100.00
24788;BME280;12883;52.662;5.196;2023-02-15T04:04:47;102768.69;;;3.09;100.00
24788;BME280;12883;52.662;5.196;2023-02-15T04:07:12;102711.19;;;2.81;100.00
24788;BME280;12883;52.662;5.196;2023-02-15T04:09:38;102776.00;;;3.04;100.00
24788;BME280;12883;52.662;5.196;2023-02-15T04:12:22;102761.44;;;3.00;100.00
24788;BME280;12883;52.662;5.196;2023-02-15T04:14:47;102755.97;;;3.03;100.00
24788;BME280;12883;52.662;5.196;2023-02-15T04:17:32;102755.66;;;2.95;100.00
24788;BME280;12883;52.662;5.196;2023-02-15T04:19:57;102751.47;;;2.92;100.00
24788;BME280;12883;52.662;5.196;2023-02-15T04:22:41;102754.38;;;2.88;100.00
24788;BME280;12883;52.662;5.196;2023-02-15T04:25:25;102745.97;;;2.83;100.00
24788;BME280;12883;52.662;5.196;2023-02-15T04:27:52;102752.41;;;2.91;100.00
24788;BME280;12883;52.662;5.196;2023-02-15T04:30:20;102747.78;;;2.95;100.00
24788;BME280;12883;52.662;5.196;2023-02-15T04:32:46;102751.22;;;2.83;100.00
24788;BME280;12883;52.662;5.196;2023-02-15T04:35:11;102750.81;;;2.89;100.00
24788;BME280;12883;52.662;5.196;2023-02-15T04:37:38;102747.25;;;2.90;100.00
24788;BME280;12883;52.662;5.196;2023-02-15T04:40:04;102737.72;;;2.89;100.00
24788;BME280;12883;52.662;5.196;2023-02-15T04:42:30;102725.47;;;2.89;100.00
24788;BME280;12883;52.662;5.196;2023-02-15T04:44:56;102686.09;;;2.64;100.00
24788;BME280;12883;52.662;5.196;2023-02-15T04:47:22;102736.56;;;2.93;100.00
24788;BME280;12883;52.662;5.196;2023-02-15T04:49:47;102729.66;;;2.92;100.00
24788;BME280;12883;52.662;5.196;2023-02-15T04:52:13;102734.19;;;3.02;100.00
24788;BME280;12883;52.662;5.196;2023-02-15T04:54:38;102683.16;;;2.69;100.00
24788;BME280;12883;52.662;5.196;2023-02-15T04:57:04;102732.69;;;3.11;100.00
24788;BME280;12883;52.662;5.196;2023-02-15T04:59:30;102726.94;;;3.06;100.00
24788;BME280;12883;52.662;5.196;2023-02-15T05:01:56;102736.16;;;2.99;100.00
24788;BME280;12883;52.662;5.196;2023-02-15T05:04:21;102720.22;;;2.89;100.00
24788;BME280;12883;52.662;5.196;2023-02-15T05:06:47;102711.50;;;2.89;100.00
24788;BME280;12883;52.662;5.196;2023-02-15T05:09:12;102676.16;;;2.57;100.00
24788;BME280;12883;52.662;5.196;2023-02-15T05:11:38;102725.88;;;2.96;100.00
24788;BME280;12883;52.662;5.196;2023-02-15T05:14:04;102705.13;;;2.80;100.00
24788;BME280;12883;52.662;5.196;2023-02-15T05:16:29;102729.84;;;2.89;100.00
24788;BME280;12883;52.662;5.196;2023-02-15T05:18:54;102730.06;;;2.86;100.00
24788;BME280;12883;52.662;5.196;2023-02-15T05:21:20;102733.81;;;2.82;100.00
24788;BME280;12883;52.662;5.196;2023-02-15T05:23:45;102731.75;;;2.87;100.00
24788;BME280;12883;52.662;5.196;2023-02-15T05:26:17;102704.34;;;2.78;100.00
24788;BME280;12883;52.662;5.196;2023-02-15T05:29:02;102699.75;;;2.82;100.00
24788;BME280;12883;52.662;5.196;2023-02-15T05:31:27;102729.84;;;2.89;100.00
24788;BME280;12883;52.662;5.196;2023-02-15T05:33:53;102650.13;;;2.54;100.00
24788;BME280;12883;52.662;5.196;2023-02-15T05:36:18;102719.81;;;2.95;100.00
24788;BME280;12883;52.662;5.196;2023-02-15T05:38:43;102723.25;;;2.83;100.00
24788;BME280;12883;52.662;5.196;2023-02-15T05:41:10;102716.41;;;2.81;100.00
24788;BME280;12883;52.662;5.196;2023-02-15T05:43:36;102680.69;;;2.80;100.00
24788;BME280;12883;52.662;5.196;2023-02-15T05:46:02;102706.47;;;2.98;100.00
24788;BME280;12883;52.662;5.196;2023-02-15T05:48:28;102670.19;;;2.80;100.00
24788;BME280;12883;52.662;5.196;2023-02-15T05:51:12;102688.13;;;2.98;100.00
24788;BME280;12883;52.662;5.196;2023-02-15T05:53:39;102696.31;;;3.06;100.00
24788;BME280;12883;52.662;5.196;2023-02-15T05:56:06;102686.56;;;3.08;100.00
24788;BME280;12883;52.662;5.196;2023-02-15T05:58:35;102690.63;;;3.25;100.00
24788;BME280;12883;52.662;5.196;2023-02-15T06:01:11;102688.34;;;3.33;100.00
24788;BME280;12883;52.662;5.196;2023-02-15T06:03:37;102688.44;;;3.31;100.00
24788;BME280;12883;52.662;5.196;2023-02-15T06:06:02;102692.31;;;3.38;100.00
24788;BME280;12883;52.662;5.196;2023-02-15T06:08:30;102687.16;;;3.37;100.00
24788;BME280;12883;52.662;5.196;2023-02-15T06:10:55;102696.31;;;3.31;100.00
24788;BME280;12883;52.662;5.196;2023-02-15T06:13:21;102691.69;;;3.35;100.00
24788;BME280;12883;52.662;5.196;2023-02-15T06:15:46;102698.09;;;3.43;100.00
24788;BME280;12883;52.662;5.196;2023-02-15T06:18:11;102693.97;;;3.52;100.00
24788;BME280;12883;52.662;5.196;2023-02-15T06:20:37;102689.78;;;3.37;100.00
24788;BME280;12883;52.662;5.196;2023-02-15T06:23:02;102677.84;;;3.33;100.00
24788;BME280;12883;52.662;5.196;2023-02-15T06:25:27;102685.69;;;3.45;100.00
24788;BME280;12883;52.662;5.196;2023-02-15T06:27:53;102685.78;;;3.56;100.00
24788;BME280;12883;52.662;5.196;2023-02-15T06:30:19;102687.66;;;3.54;100.00
24788;BME280;12883;52.662;5.196;2023-02-15T06:32:44;102683.91;;;3.46;100.00
24788;BME280;12883;52.662;5.196;2023-02-15T06:35:10;102679.69;;;3.56;100.00
24788;BME280;12883;52.662;5.196;2023-02-15T06:37:35;102683.25;;;3.55;100.00
24788;BME280;12883;52.662;5.196;2023-02-15T06:40:00;102684.31;;;3.52;100.00
24788;BME280;12883;52.662;5.196;2023-02-15T06:42:26;102676.63;;;3.62;100.00
24788;BME280;12883;52.662;5.196;2023-02-15T06:44:51;102679.34;;;3.60;100.00
24788;BME280;12883;52.662;5.196;2023-02-15T06:47:16;102683.56;;;3.63;100.00
24788;BME280;12883;52.662;5.196;2023-02-15T06:49:42;102684.06;;;3.68;100.00
24788;BME280;12883;52.662;5.196;2023-02-15T06:52:07;102688.47;;;3.67;100.00
24788;BME280;12883;52.662;5.196;2023-02-15T06:54:33;102682.09;;;3.59;100.00
24788;BME280;12883;52.662;5.196;2023-02-15T06:56:58;102687.13;;;3.62;100.00
24788;BME280;12883;52.662;5.196;2023-02-15T06:59:23;102686.56;;;3.69;100.00
24788;BME280;12883;52.662;5.196;2023-02-15T07:01:49;102687.19;;;3.73;100.00
24788;BME280;12883;52.662;5.196;2023-02-15T07:04:15;102689.72;;;3.74;100.00
24788;BME280;12883;52.662;5.196;2023-02-15T07:06:40;102685.56;;;3.59;100.00
24788;BME280;12883;52.662;5.196;2023-02-15T07:09:06;102665.00;;;3.53;100.00
24788;BME280;12883;52.662;5.196;2023-02-15T07:11:32;102693.91;;;3.77;100.00
24788;BME280;12883;52.662;5.196;2023-02-15T07:14:16;102682.97;;;3.83;100.00
24788;BME280;12883;52.662;5.196;2023-02-15T07:16:41;102688.44;;;3.80;100.00
24788;BME280;12883;52.662;5.196;2023-02-15T07:19:06;102683.78;;;3.96;100.00
24788;BME280;12883;52.662;5.196;2023-02-15T07:21:32;102685.03;;;3.90;100.00
24788;BME280;12883;52.662;5.196;2023-02-15T07:23:58;102680.63;;;3.91;100.00
24788;BME280;12883;52.662;5.196;2023-02-15T07:26:24;102651.53;;;3.70;100.00
24788;BME280;12883;52.662;5.196;2023-02-15T07:28:49;102681.78;;;3.99;100.00
24788;BME280;12883;52.662;5.196;2023-02-15T07:31:14;102646.66;;;3.77;100.00
24788;BME280;12883;52.662;5.196;2023-02-15T07:33:40;102675.22;;;4.05;100.00
24788;BME280;12883;52.662;5.196;2023-02-15T07:36:05;102657.00;;;3.91;100.00
24788;BME280;12883;52.662;5.196;2023-02-15T07:38:33;102673.66;;;4.02;100.00
24788;BME280;12883;52.662;5.196;2023-02-15T07:41:07;102631.09;;;3.86;100.00
24788;BME280;12883;52.662;5.196;2023-02-15T07:43:34;102663.22;;;4.13;100.00
24788;BME280;12883;52.662;5.196;2023-02-15T07:46:04;102660.16;;;4.19;100.00
24788;BME280;12883;52.662;5.196;2023-02-15T07:48:30;102649.75;;;4.18;100.00
24788;BME280;12883;52.662;5.196;2023-02-15T07:50:59;102630.13;;;4.11;100.00
24788;BME280;12883;52.662;5.196;2023-02-15T07:53:24;102649.16;;;4.25;100.00
24788;BME280;12883;52.662;5.196;2023-02-15T07:55:49;102650.50;;;4.31;100.00
24788;BME280;12883;52.662;5.196;2023-02-15T07:58:15;102637.63;;;4.39;100.00
24788;BME280;12883;52.662;5.196;2023-02-15T08:00:40;102629.50;;;4.42;100.00
24788;BME280;12883;52.662;5.196;2023-02-15T08:03:27;102625.09;;;4.42;100.00
24788;BME280;12883;52.662;5.196;2023-02-15T08:05:58;102627.38;;;4.47;100.00
24788;BME280;12883;52.662;5.196;2023-02-15T08:08:24;102641.03;;;4.52;100.00
24788;BME280;12883;52.662;5.196;2023-02-15T08:11:04;102599.44;;;4.46;100.00
24788;BME280;12883;52.662;5.196;2023-02-15T08:13:50;102616.66;;;4.60;100.00
24788;BME280;12883;52.662;5.196;2023-02-15T08:18:50;102590.97;;;4.53;100.00
24788;BME280;12883;52.662;5.196;2023-02-15T08:21:16;102625.06;;;4.76;100.00
24788;BME280;12883;52.662;5.196;2023-02-15T08:23:42;102623.16;;;4.78;100.00
24788;BME280;12883;52.662;5.196;2023-02-15T08:26:07;102613.59;;;4.88;100.00
24788;BME280;12883;52.662;5.196;2023-02-15T08:28:33;102617.78;;;4.91;100.00
24788;BME280;12883;52.662;5.196;2023-02-15T08:31:12;102607.13;;;5.03;100.00
24788;BME280;12883;52.662;5.196;2023-02-15T08:33:39;102611.13;;;5.09;100.00
24788;BME280;12883;52.662;5.196;2023-02-15T08:36:14;102609.06;;;5.12;100.00
24788;BME280;12883;52.662;5.196;2023-02-15T08:38:40;102615.28;;;5.22;100.00
24788;BME280;12883;52.662;5.196;2023-02-15T08:41:24;102608.47;;;5.31;100.00
24788;BME280;12883;52.662;5.196;2023-02-15T08:43:52;102545.72;;;4.93;100.00
24788;BME280;12883;52.662;5.196;2023-02-15T08:46:22;102604.75;;;5.33;100.00
24788;BME280;12883;52.662;5.196;2023-02-15T08:48:49;102603.91;;;5.33;100.00
24788;BME280;12883;52.662;5.196;2023-02-15T08:51:20;102602.84;;;5.35;100.00
24788;BME280;12883;52.662;5.196;2023-02-15T08:53:50;102598.03;;;5.40;100.00
24788;BME280;12883;52.662;5.196;2023-02-15T08:56:18;102561.47;;;5.15;100.00
24788;BME280;12883;52.662;5.196;2023-02-15T08:58:44;102613.34;;;5.46;100.00
24788;BME280;12883;52.662;5.196;2023-02-15T09:01:14;102605.69;;;5.43;100.00
24788;BME280;12883;52.662;5.196;2023-02-15T09:03:44;102597.09;;;5.41;100.00
24788;BME280;12883;52.662;5.196;2023-02-15T09:06:10;102603.06;;;5.43;100.00
24788;BME280;12883;52.662;5.196;2023-02-15T09:08:36;102600.91;;;5.48;100.00
24788;BME280;12883;52.662;5.196;2023-02-15T09:13:38;102589.75;;;5.56;100.00
24788;BME280;12883;52.662;5.196;2023-02-15T09:16:09;102597.28;;;5.60;100.00
24788;BME280;12883;52.662;5.196;2023-02-15T09:18:38;102557.97;;;5.37;100.00
24788;BME280;12883;52.662;5.196;2023-02-15T09:21:11;102595.59;;;5.59;100.00
24788;BME280;12883;52.662;5.196;2023-02-15T09:23:41;102581.34;;;5.62;100.00
24788;BME280;12883;52.662;5.196;2023-02-15T09:26:09;102587.94;;;5.67;100.00
24788;BME280;12883;52.662;5.196;2023-02-15T09:28:35;102585.63;;;5.74;100.00
24788;BME280;12883;52.662;5.196;2023-02-15T09:31:11;102586.22;;;5.77;100.00
24788;BME280;12883;52.662;5.196;2023-02-15T09:33:38;102586.94;;;5.79;100.00
24788;BME280;12883;52.662;5.196;2023-02-15T09:36:04;102560.75;;;5.67;100.00
24788;BME280;12883;52.662;5.196;2023-02-15T09:38:30;102578.72;;;6.04;100.00
24788;BME280;12883;52.662;5.196;2023-02-15T09:41:24;102577.06;;;6.03;100.00
24788;BME280;12883;52.662;5.196;2023-02-15T09:47:40;102585.53;;;6.07;100.00
24788;BME280;12883;52.662;5.196;2023-02-15T09:55:41;102588.38;;;6.15;100.00
24788;BME280;12883;52.662;5.196;2023-02-15T10:01:07;102594.81;;;6.22;100.00
24788;BME280;12883;52.662;5.196;2023-02-15T10:06:35;102606.81;;;6.35;100.00
24788;BME280;12883;52.662;5.196;2023-02-15T10:27:23;102607.78;;;6.75;100.00
24788;BME280;12883;52.662;5.196;2023-02-15T10:32:28;102603.84;;;6.90;100.00
24788;BME280;12883;52.662;5.196;2023-02-15T10:35:07;102605.72;;;6.99;100.00
24788;BME280;12883;52.662;5.196;2023-02-15T10:46:16;102579.16;;;6.91;100.00
24788;BME280;12883;52.662;5.196;2023-02-15T10:54:47;102555.88;;;7.15;100.00
24788;BME280;12883;52.662;5.196;2023-02-15T11:00:13;102552.03;;;7.19;100.00
24788;BME280;12883;52.662;5.196;2023-02-15T11:06:08;102554.53;;;7.30;100.00
24788;BME280;12883;52.662;5.196;2023-02-15T11:08:50;102546.75;;;7.38;100.00
24788;BME280;12883;52.662;5.196;2023-02-15T11:11:37;102543.16;;;7.39;100.00
24788;BME280;12883;52.662;5.196;2023-02-15T11:16:58;102489.50;;;7.20;100.00
24788;BME280;12883;52.662;5.196;2023-02-15T11:19:36;102540.41;;;7.50;100.00
24788;BME280;12883;52.662;5.196;2023-02-15T11:22:05;102527.34;;;7.58;100.00
24788;BME280;12883;52.662;5.196;2023-02-15T11:24:35;102518.03;;;7.64;100.00
24788;BME280;12883;52.662;5.196;2023-02-15T11:29:53;102519.72;;;7.74;100.00
24788;BME280;12883;52.662;5.196;2023-02-15T11:32:25;102517.09;;;7.74;100.00
24788;BME280;12883;52.662;5.196;2023-02-15T11:34:59;102493.31;;;7.74;100.00
24788;BME280;12883;52.662;5.196;2023-02-15T11:37:34;102428.66;;;7.40;100.00
24788;BME280;12883;52.662;5.196;2023-02-15T11:40:02;102494.13;;;7.84;100.00
24788;BME280;12883;52.662;5.196;2023-02-15T11:42:30;102472.13;;;7.84;100.00
24788;BME280;12883;52.662;5.196;2023-02-15T11:45:02;102498.56;;;7.93;100.00
24788;BME280;12883;52.662;5.196;2023-02-15T11:47:29;102502.59;;;7.97;100.00
24788;BME280;12883;52.662;5.196;2023-02-15T11:49:56;102476.16;;;7.88;100.00
24788;BME280;12883;52.662;5.196;2023-02-15T11:52:22;102493.53;;;8.09;100.00
24788;BME280;12883;52.662;5.196;2023-02-15T11:54:50;102484.91;;;8.07;100.00
24788;BME280;12883;52.662;5.196;2023-02-15T11:57:25;102475.03;;;8.09;100.00
24788;BME280;12883;52.662;5.196;2023-02-15T11:59:57;102475.03;;;8.09;100.00
24788;BME280;12883;52.662;5.196;2023-02-15T12:02:26;102465.16;;;8.21;100.00
24788;BME280;12883;52.662;5.196;2023-02-15T12:05:03;102478.78;;;8.16;100.00
24788;BME280;12883;52.662;5.196;2023-02-15T12:07:36;102472.34;;;8.28;100.00
24788;BME280;12883;52.662;5.196;2023-02-15T12:10:25;102480.56;;;8.35;100.00
24788;BME280;12883;52.662;5.196;2023-02-15T12:15:44;102478.03;;;8.43;100.00
24788;BME280;12883;52.662;5.196;2023-02-15T12:18:37;102475.63;;;8.49;100.00
24788;BME280;12883;52.662;5.196;2023-02-15T12:21:10;102488.03;;;8.49;100.00
24788;BME280;12883;52.662;5.196;2023-02-15T12:23:58;102472.84;;;8.51;100.00
24788;BME280;12883;52.662;5.196;2023-02-15T12:26:30;102467.13;;;8.55;100.00
24788;BME280;12883;52.662;5.196;2023-02-15T12:29:06;102471.97;;;8.60;100.00
24788;BME280;12883;52.662;5.196;2023-02-15T12:31:38;102475.69;;;8.67;100.00
24788;BME280;12883;52.662;5.196;2023-02-15T12:34:11;102478.88;;;8.70;100.00
24788;BME280;12883;52.662;5.196;2023-02-15T12:36:44;102464.94;;;8.78;100.00
24788;BME280;12883;52.662;5.196;2023-02-15T12:39:18;102475.38;;;8.79;100.00
24788;BME280;12883;52.662;5.196;2023-02-15T12:41:56;102462.81;;;8.81;100.00
24788;BME280;12883;52.662;5.196;2023-02-15T12:44:24;102462.78;;;8.91;100.00
24788;BME280;12883;52.662;5.196;2023-02-15T12:49:36;102460.22;;;8.99;100.00
24788;BME280;12883;52.662;5.196;2023-02-15T12:52:24;102451.91;;;9.11;100.00
24788;BME280;12883;52.662;5.196;2023-02-15T12:54:50;102463.19;;;9.13;100.00
24788;BME280;12883;52.662;5.196;2023-02-15T13:00:05;102480.38;;;9.27;100.00
24788;BME280;12883;52.662;5.196;2023-02-15T13:02:46;102483.72;;;9.29;100.00
24788;BME280;12883;52.662;5.196;2023-02-15T13:08:17;102462.31;;;9.40;100.00
24788;BME280;12883;52.662;5.196;2023-02-15T13:11:00;102461.56;;;9.47;100.00
24788;BME280;12883;52.662;5.196;2023-02-15T13:13:31;102460.94;;;9.53;100.00
24788;BME280;12883;52.662;5.196;2023-02-15T13:16:10;102476.00;;;9.52;100.00
24788;BME280;12883;52.662;5.196;2023-02-15T13:18:46;102461.19;;;9.59;100.00
24788;BME280;12883;52.662;5.196;2023-02-15T13:21:21;102459.19;;;9.61;100.00
24788;BME280;12883;52.662;5.196;2023-02-15T13:26:47;102445.13;;;9.61;100.00
24788;BME280;12883;52.662;5.196;2023-02-15T13:29:30;102443.53;;;9.68;100.00
24788;BME280;12883;52.662;5.196;2023-02-15T13:32:04;102438.97;;;9.60;100.00
24788;BME280;12883;52.662;5.196;2023-02-15T13:34:34;102445.66;;;9.64;100.00
24788;BME280;12883;52.662;5.196;2023-02-15T13:37:18;102449.44;;;9.62;100.00
24788;BME280;12883;52.662;5.196;2023-02-15T13:40:08;102438.53;;;9.65;100.00
24788;BME280;12883;52.662;5.196;2023-02-15T13:42:44;102428.59;;;9.67;100.00
24788;BME280;12883;52.662;5.196;2023-02-15T13:45:28;102422.84;;;9.71;100.00
24788;BME280;12883;52.662;5.196;2023-02-15T13:48:29;102431.47;;;9.73;100.00
24788;BME280;12883;52.662;5.196;2023-02-15T13:51:12;102409.03;;;9.85;100.00
24788;BME280;12883;52.662;5.196;2023-02-15T14:10:06;102404.38;;;10.05;100.00
24788;BME280;12883;52.662;5.196;2023-02-15T14:15:38;102410.88;;;10.10;100.00
24788;BME280;12883;52.662;5.196;2023-02-15T14:21:06;102397.41;;;10.04;100.00
24788;BME280;12883;52.662;5.196;2023-02-15T14:31:34;102402.19;;;10.26;100.00
24788;BME280;12883;52.662;5.196;2023-02-15T14:34:03;102398.38;;;10.28;100.00
24788;BME280;12883;52.662;5.196;2023-02-15T14:36:30;102399.03;;;10.30;100.00
24788;BME280;12883;52.662;5.196;2023-02-15T14:39:02;102411.53;;;10.38;100.00
24788;BME280;12883;52.662;5.196;2023-02-15T14:41:44;102401.72;;;10.38;100.00
24788;BME280;12883;52.662;5.196;2023-02-15T14:44:23;102406.03;;;10.39;100.00
24788;BME280;12883;52.662;5.196;2023-02-15T14:53:25;102385.66;;;10.40;100.00
24788;BME280;12883;52.662;5.196;2023-02-15T14:58:38;102386.50;;;10.40;100.00
24788;BME280;12883;52.662;5.196;2023-02-15T15:01:06;102363.03;;;10.28;100.00
24788;BME280;12883;52.662;5.196;2023-02-15T15:03:33;102381.34;;;10.39;100.00
24788;BME280;12883;52.662;5.196;2023-02-15T15:06:01;102369.06;;;10.38;100.00
24788;BME280;12883;52.662;5.196;2023-02-15T15:08:37;102368.19;;;10.29;100.00
24788;BME280;12883;52.662;5.196;2023-02-15T15:13:59;102368.34;;;10.28;100.00
24788;BME280;12883;52.662;5.196;2023-02-15T15:19:05;102359.22;;;9.97;100.00
24788;BME280;12883;52.662;5.196;2023-02-15T15:30:07;102367.44;;;9.86;100.00
24788;BME280;12883;52.662;5.196;2023-02-15T15:46:35;102362.03;;;9.70;100.00
24788;BME280;12883;52.662;5.196;2023-02-15T15:49:09;102346.69;;;9.56;100.00
24788;BME280;12883;52.662;5.196;2023-02-15T15:51:39;102355.47;;;9.56;100.00
24788;BME280;12883;52.662;5.196;2023-02-15T15:54:05;102346.22;;;9.60;100.00
24788;BME280;12883;52.662;5.196;2023-02-15T15:56:33;102344.88;;;9.56;100.00
24788;BME280;12883;52.662;5.196;2023-02-15T15:59:06;102349.34;;;9.56;100.00
24788;BME280;12883;52.662;5.196;2023-02-15T16:01:42;102376.47;;;9.50;100.00
24788;BME280;12883;52.662;5.196;2023-02-15T16:04:13;102348.97;;;9.51;100.00
24788;BME280;12883;52.662;5.196;2023-02-15T16:06:40;102354.41;;;9.49;100.00